createdAt,value
2017-09-17T00:02:10.952Z,64.70
2017-09-17T00:04:45.909Z,64.70
2017-09-17T00:07:15.052Z,64.70
2017-09-17T00:09:43.797Z,64.60
2017-09-17T00:12:12.496Z,64.60
2017-09-17T00:14:41.948Z,64.30
2017-09-17T00:17:10.634Z,64.20
2017-09-17T00:19:39.339Z,64.40
2017-09-17T00:22:08.021Z,64.40
2017-09-17T00:24:37.683Z,64.60
2017-09-17T00:27:12.668Z,64.70
2017-09-17T00:29:41.343Z,65.20
2017-09-17T00:32:18.315Z,65.40
2017-09-17T00:34:46.993Z,65.60
2017-09-17T00:37:15.674Z,65.50
2017-09-17T00:39:44.367Z,65.20
2017-09-17T00:42:13.052Z,64.90
2017-09-17T00:44:41.755Z,64.70
2017-09-17T00:47:16.708Z,64.70
2017-09-17T00:49:45.416Z,64.70
2017-09-17T00:52:14.866Z,64.80
2017-09-17T00:54:43.547Z,64.80
2017-09-17T00:57:12.239Z,65.00
2017-09-17T00:59:40.921Z,65.10
2017-09-17T01:02:09.630Z,64.90
2017-09-17T01:04:38.315Z,64.70
2017-09-17T01:07:12.443Z,64.60
2017-09-17T01:09:41.124Z,64.50
2017-09-17T01:12:09.808Z,64.50
2017-09-17T01:14:39.363Z,64.60
2017-09-17T01:17:08.043Z,64.80
2017-09-17T01:19:36.855Z,64.80
2017-09-17T01:22:05.542Z,65.00
2017-09-17T01:24:34.232Z,65.40
2017-09-17T01:27:03.752Z,65.80
2017-09-17T01:29:32.443Z,65.80
2017-09-17T01:32:01.150Z,66.00
2017-09-17T01:34:30.611Z,66.00
2017-09-17T01:36:59.305Z,66.00
2017-09-17T01:39:28.012Z,65.40
2017-09-17T01:41:56.687Z,65.00
2017-09-17T01:44:27.247Z,64.90
2017-09-17T01:46:56.703Z,64.60
2017-09-17T01:49:25.397Z,64.50
2017-09-17T01:51:54.092Z,64.50
2017-09-17T01:54:29.499Z,64.70
2017-09-17T01:56:58.215Z,64.80
2017-09-17T01:59:26.910Z,64.80
2017-09-17T02:01:55.596Z,64.60
2017-09-17T02:04:24.311Z,64.60
2017-09-17T02:06:59.917Z,64.00
2017-09-17T02:09:28.655Z,64.00
2017-09-17T02:11:57.355Z,64.00
2017-09-17T02:14:26.068Z,64.00
2017-09-17T02:17:13.942Z,64.10
2017-09-17T02:19:42.638Z,64.30
2017-09-17T02:22:12.139Z,64.30
2017-09-17T02:24:41.605Z,64.50
2017-09-17T02:27:11.296Z,64.40
2017-09-17T02:29:40.000Z,64.50
2017-09-17T02:32:08.700Z,64.80
2017-09-17T02:34:38.268Z,64.70
2017-09-17T02:37:06.981Z,64.60
2017-09-17T02:39:35.701Z,64.40
2017-09-17T02:42:04.412Z,64.20
2017-09-17T02:44:33.128Z,64.30
2017-09-17T02:47:02.012Z,64.50
2017-09-17T02:49:31.630Z,64.60
2017-09-17T02:52:00.323Z,64.70
2017-09-17T02:54:29.047Z,64.50
2017-09-17T02:57:00.400Z,64.20
2017-09-17T02:59:35.281Z,64.20
2017-09-17T03:02:06.479Z,64.20
2017-09-17T03:04:36.484Z,64.20
2017-09-17T03:07:05.495Z,64.20
2017-09-17T03:09:35.165Z,64.10
2017-09-17T03:12:05.015Z,64.10
2017-09-17T03:14:40.231Z,63.90
2017-09-17T03:17:09.297Z,63.20
2017-09-17T03:19:39.074Z,63.80
2017-09-17T03:22:08.151Z,63.80
2017-09-17T03:24:37.168Z,64.00
2017-09-17T03:27:05.951Z,64.10
2017-09-17T03:29:34.794Z,64.20
2017-09-17T03:32:03.683Z,64.30
2017-09-17T03:34:32.488Z,64.50
2017-09-17T03:37:02.082Z,64.80
2017-09-17T03:39:31.031Z,64.80
2017-09-17T03:42:00.642Z,65.10
2017-09-17T03:44:29.556Z,65.10
2017-09-17T03:46:58.341Z,65.10
2017-09-17T03:49:27.591Z,65.20
2017-09-17T03:51:57.386Z,65.40
2017-09-17T03:54:27.387Z,65.30
2017-09-17T03:56:56.507Z,65.10
2017-09-17T03:59:25.768Z,65.10
2017-09-17T04:01:57.805Z,65.50
2017-09-17T04:04:26.886Z,64.80
2017-09-17T04:06:56.134Z,64.80
2017-09-17T04:09:25.266Z,64.90
2017-09-17T04:11:54.360Z,64.90
2017-09-17T04:14:25.322Z,64.90
2017-09-17T04:16:54.401Z,64.90
2017-09-17T04:19:23.589Z,64.90
2017-09-17T04:21:53.262Z,65.00
2017-09-17T04:24:22.441Z,65.00
2017-09-17T04:26:51.763Z,64.90
2017-09-17T04:29:21.604Z,64.70
2017-09-17T04:31:51.090Z,64.50
2017-09-17T04:34:20.188Z,64.10
2017-09-17T04:36:48.985Z,63.80
2017-09-17T04:39:18.489Z,63.40
2017-09-17T04:41:47.251Z,63.30
2017-09-17T04:44:15.976Z,63.30
2017-09-17T04:46:44.666Z,63.50
2017-09-17T04:49:13.364Z,63.60
2017-09-17T04:51:42.073Z,63.70
2017-09-17T04:54:10.772Z,63.90
2017-09-17T04:56:45.683Z,64.00
2017-09-17T04:59:19.186Z,64.10
2017-09-17T05:01:54.019Z,64.10
2017-09-17T05:04:22.705Z,64.20
2017-09-17T05:06:51.412Z,64.10
2017-09-17T05:09:26.285Z,64.10
2017-09-17T05:11:54.962Z,64.00
2017-09-17T05:14:23.684Z,64.00
2017-09-17T05:16:52.371Z,64.00
2017-09-17T05:19:21.048Z,64.20
2017-09-17T05:21:49.747Z,64.10
2017-09-17T05:24:18.435Z,64.10
2017-09-17T05:26:47.157Z,64.10
2017-09-17T05:29:16.594Z,64.00
2017-09-17T05:31:45.272Z,64.00
2017-09-17T05:34:13.968Z,64.00
2017-09-17T05:36:47.779Z,64.10
2017-09-17T05:39:16.482Z,64.10
2017-09-17T05:41:45.180Z,64.10
2017-09-17T05:44:13.860Z,64.10
2017-09-17T05:46:42.559Z,64.10
2017-09-17T05:49:13.177Z,64.10
2017-09-17T05:51:41.871Z,64.20
2017-09-17T05:54:12.184Z,64.40
2017-09-17T05:56:40.891Z,64.40
2017-09-17T05:59:09.571Z,64.60
2017-09-17T06:01:39.161Z,64.70
2017-09-17T06:04:07.847Z,65.00
2017-09-17T06:06:36.531Z,65.00
2017-09-17T06:09:11.480Z,65.10
2017-09-17T06:11:40.164Z,64.80
2017-09-17T06:14:13.459Z,64.80
2017-09-17T06:16:48.407Z,65.50
2017-09-17T06:22:29.730Z,65.50
2017-09-17T06:25:14.992Z,65.50
2017-09-17T06:28:13.449Z,65.60
2017-09-17T06:31:02.357Z,65.60
2017-09-17T06:36:09.392Z,65.40
2017-09-17T06:38:46.406Z,64.90
2017-09-17T06:41:29.821Z,65.00
2017-09-17T06:47:04.307Z,63.90
2017-09-17T06:49:47.760Z,63.50
2017-09-17T06:52:24.190Z,63.90
2017-09-17T06:54:53.841Z,64.30
2017-09-17T06:57:24.876Z,64.50
2017-09-17T06:59:57.777Z,63.50
2017-09-17T07:02:54.916Z,64.50
2017-09-17T07:05:30.935Z,64.40
